Time;durP1;ratioP1;P1;durP2;ratioP2;P2;SDS_P1;SDS_P2;PMS_P1;PMS_P2;Temp;Humidity;BMP_temperature;BMP_pressure;BME280_temperature;BME280_humidity;BME280_pressure;Samples;Min_cycle;Max_cycle;Signal;HPM_P1;HPM_P2
2021/12/12 07:50:27;;;;;;;;;12.75;11.50;;;;;8.16;85.63;102304.56;5124858;27;49696;-65
2021/12/12 07:52:53;;;;;;;;;13.75;12.50;;;;;8.31;85.66;102281.84;5108239;27;50250;-68
2021/12/12 07:55:18;;;;;;;;;14.00;11.75;;;;;8.66;84.83;102314.28;5108335;27;49910;-62
2021/12/12 07:57:44;;;;;;;;;11.00;8.75;;;;;8.69;83.95;102296.13;5107720;27;49735;-69
2021/12/12 08:00:19;;;;;;;;;19.25;13.50;;;;;8.96;84.41;102321.94;5107745;27;49702;-65
2021/12/12 08:02:47;;;;;;;;;16.25;12.75;;;;;9.03;83.68;102309.25;5107908;27;50043;-62
2021/12/12 08:05:16;;;;;;;;;11.00;10.00;;;;;8.99;83.51;102288.97;5107665;27;49834;-62
2021/12/12 08:07:43;;;;;;;;;15.75;15.75;;;;;9.25;81.97;102313.84;5107631;27;49972;-67
2021/12/12 08:10:12;;;;;;;;;9.75;9.25;;;;;9.15;82.56;102282.75;5107388;27;50042;-76
2021/12/12 08:12:38;;;;;;;;;9.00;8.00;;;;;9.22;82.49;102281.38;5107720;27;49619;-79
2021/12/12 08:15:07;;;;;;;;;7.25;7.25;;;;;9.58;81.91;102334.75;5107606;27;50050;-68
2021/12/12 08:17:34;;;;;;;;;9.00;8.50;;;;;9.45;81.62;102289.53;5106936;27;50751;-69
2021/12/12 08:20:00;;;;;;;;;7.75;7.75;;;;;9.72;80.59;102324.09;5106923;27;49986;-79
2021/12/12 08:22:27;;;;;;;;;9.50;7.25;;;;;9.79;80.83;102325.31;5088950;27;49717;-77
2021/12/12 08:24:57;;;;;;;;;12.00;11.00;;;;;9.81;81.04;102317.50;5089080;27;49889;-70
2021/12/12 08:27:22;;;;;;;;;13.50;12.00;;;;;10.04;80.35;102348.38;5090963;27;50636;-71
2021/12/12 08:29:49;;;;;;;;;12.00;11.25;;;;;9.95;79.43;102319.97;5107281;27;49788;-74
2021/12/12 08:32:15;;;;;;;;;12.25;8.25;;;;;9.89;79.68;102306.56;5107618;27;49868;-67
2021/12/12 08:34:41;;;;;;;;;8.00;8.00;;;;;10.21;79.70;102354.41;5089011;27;50245;-67
2021/12/12 08:37:08;;;;;;;;;9.25;8.50;;;;;9.98;79.66;102307.00;5106536;27;49797;-68
2021/12/12 08:39:35;;;;;;;;;12.25;9.75;;;;;10.23;79.18;102344.91;5106878;27;50108;-68
2021/12/12 08:42:02;;;;;;;;;9.50;9.50;;;;;10.34;78.88;102356.84;5107497;27;49802;-76
2021/12/12 08:44:29;;;;;;;;;11.00;9.75;;;;;10.41;78.78;102353.66;5107965;27;49816;-67
2021/12/12 08:46:58;;;;;;;;;9.00;8.25;;;;;10.50;78.52;102342.69;5106867;27;50523;-75
2021/12/12 08:49:28;;;;;;;;;9.00;8.00;;;;;10.34;78.66;102308.69;5106772;27;49710;-76
2021/12/12 08:52:01;;;;;;;;;9.00;9.00;;;;;10.66;78.40;102344.31;5106133;27;49690;-67
2021/12/12 08:54:28;;;;;;;;;13.75;13.75;;;;;10.57;78.25;102343.03;5106905;27;49875;-70
2021/12/12 08:57:13;;;;;;;;;10.75;7.75;;;;;10.76;77.78;102354.41;5106741;27;49898;-70
2021/12/12 08:59:45;;;;;;;;;7.50;7.50;;;;;10.79;77.25;102358.06;5105250;27;49717;-62
2021/12/12 09:02:13;;;;;;;;;10.00;9.00;;;;;10.84;77.05;102356.53;5093262;27;49687;-62
2021/12/12 09:04:48;;;;;;;;;11.75;10.75;;;;;10.95;77.60;102358.75;5093283;27;49868;-59
2021/12/12 09:07:21;;;;;;;;;6.00;6.00;;;;;11.04;76.92;102361.78;5093107;27;49947;-59
2021/12/12 09:10:01;;;;;;;;;11.25;8.25;;;;;10.76;76.31;102289.63;5092810;27;49735;-60
2021/12/12 09:12:35;;;;;;;;;9.00;7.75;;;;;11.21;76.52;102359.91;5092627;27;49771;-63
2021/12/12 09:15:15;;;;;;;;;8.00;8.00;;;;;11.27;75.97;102362.78;5092135;27;50005;-60
2021/12/12 09:17:45;;;;;;;;;8.75;7.75;;;;;11.16;75.68;102325.53;5091433;27;50585;-58
2021/12/12 09:20:33;;;;;;;;;7.75;7.00;;;;;11.32;75.90;102363.91;5091806;27;49915;-61
2021/12/12 09:23:07;;;;;;;;;6.75;6.75;;;;;11.06;75.79;102313.72;5091877;27;49785;-57
2021/12/12 09:25:50;;;;;;;;;10.00;7.00;;;;;11.41;75.54;102366.94;5093389;27;49786;-60
2021/12/12 09:28:28;;;;;;;;;9.00;8.25;;;;;11.43;75.55;102367.88;5094629;27;50592;-60
2021/12/12 09:30:56;;;;;;;;;8.25;6.00;;;;;11.44;75.77;102372.31;5102429;27;49853;-59
2021/12/12 09:33:29;;;;;;;;;8.75;7.75;;;;;11.29;75.62;102348.91;5096085;27;49682;-60
2021/12/12 09:36:20;;;;;;;;;10.00;10.00;;;;;11.47;75.50;102377.69;5097373;27;49615;-60
2021/12/12 09:38:54;;;;;;;;;9.50;8.00;;;;;11.41;75.29;102359.94;5102813;27;50792;-60
2021/12/12 09:41:51;;;;;;;;;11.50;7.75;;;;;11.15;75.69;102308.84;5107556;27;50024;-59
2021/12/12 09:44:43;;;;;;;;;4.75;4.75;;;;;11.56;75.20;102361.41;5096080;27;49646;-59
2021/12/12 09:53:46;;;;;;;;;10.25;8.75;;;;;11.82;75.29;102368.69;5075543;28;49918;-64
2021/12/12 09:56:32;;;;;;;;;8.00;8.00;;;;;11.88;74.84;102368.06;5082774;28;49783;-61
2021/12/12 09:59:04;;;;;;;;;6.75;6.75;;;;;11.95;74.62;102376.25;5090075;27;49757;-57
2021/12/12 10:01:32;;;;;;;;;6.00;4.00;;;;;12.04;74.13;102376.63;5104362;27;50079;-58
2021/12/12 10:04:25;;;;;;;;;6.50;6.50;;;;;12.15;74.28;102366.50;5100925;27;49709;-68
2021/12/12 10:07:13;;;;;;;;;5.00;5.00;;;;;12.27;74.13;102374.03;5117085;27;49633;-62
2021/12/12 10:10:08;;;;;;;;;8.50;8.50;;;;;12.30;73.70;102368.88;5083170;28;50071;-61
2021/12/12 10:12:40;;;;;;;;;7.25;7.25;;;;;12.34;73.39;102368.13;5077698;27;49792;-62
2021/12/12 10:15:06;;;;;;;;;8.50;8.00;;;;;12.44;73.71;102383.47;5057389;28;49751;-58
2021/12/12 10:17:40;;;;;;;;;11.75;10.25;;;;;12.52;73.33;102376.75;5082500;28;49719;-59
2021/12/12 10:20:14;;;;;;;;;9.50;8.75;;;;;12.55;73.00;102374.25;5083844;28;49634;-58
2021/12/12 10:22:55;;;;;;;;;7.50;7.50;;;;;12.66;73.26;102373.78;5063016;28;50705;-58
2021/12/12 10:25:32;;;;;;;;;8.25;8.25;;;;;12.67;73.33;102365.03;5072303;28;49734;-63
2021/12/12 10:28:14;;;;;;;;;9.25;7.75;;;;;12.82;72.49;102376.13;5076977;28;49680;-61
2021/12/12 10:30:44;;;;;;;;;10.25;10.25;;;;;12.81;72.35;102371.69;5081011;28;49778;-66
2021/12/12 10:33:21;;;;;;;;;7.25;7.25;;;;;12.86;72.05;102380.69;5085482;28;50249;-68
2021/12/12 10:35:58;;;;;;;;;9.50;7.00;;;;;12.88;71.69;102382.53;5089453;28;49233;-67
2021/12/12 10:38:42;;;;;;;;;6.75;5.75;;;;;12.91;72.06;102376.47;5085522;28;49424;-68
2021/12/12 10:41:22;;;;;;;;;9.75;9.25;;;;;12.98;72.17;102391.66;5076941;28;49816;-65
2021/12/12 10:44:26;;;;;;;;;9.25;8.25;;;;;13.00;71.78;102371.53;5076219;28;49643;-69
2021/12/12 10:47:08;;;;;;;;;9.50;8.25;;;;;13.12;71.49;102372.00;5077623;28;49691;-76
2021/12/12 10:49:41;;;;;;;;;10.00;9.50;;;;;13.13;71.16;102376.41;5081097;28;49750;-73
2021/12/12 10:52:07;;;;;;;;;10.00;7.50;;;;;13.17;71.38;102377.41;5059051;28;50140;-69
2021/12/12 10:54:41;;;;;;;;;8.00;8.00;;;;;13.13;71.47;102383.44;5076250;28;49750;-74
2021/12/12 10:57:18;;;;;;;;;13.00;10.25;;;;;13.24;71.14;102382.09;5071246;28;49758;-70
2021/12/12 11:00:06;;;;;;;;;7.00;6.25;;;;;13.35;70.92;102375.47;5072504;28;49790;-71
2021/12/12 11:02:44;;;;;;;;;11.25;9.00;;;;;13.33;70.96;102363.97;5081823;28;49888;-69
2021/12/12 11:05:17;;;;;;;;;11.25;10.00;;;;;13.51;70.53;102382.19;5074853;28;50629;-71
2021/12/12 11:07:53;;;;;;;;;9.00;9.00;;;;;13.56;70.94;102382.34;5073543;28;49674;-66
2021/12/12 11:10:26;;;;;;;;;9.00;9.00;;;;;13.50;69.26;102367.16;5074644;27;49972;-65
2021/12/12 11:13:04;;;;;;;;;13.25;12.50;;;;;13.52;69.68;102361.97;5076185;28;49667;-65
2021/12/12 11:15:36;;;;;;;;;8.25;6.00;;;;;13.17;69.78;102314.13;5077466;28;49675;-66
2021/12/12 11:18:15;;;;;;;;;12.25;10.75;;;;;13.34;70.38;102336.75;5073497;28;50050;-67
2021/12/12 11:20:49;;;;;;;;;20.00;17.75;;;;;13.64;70.28;102380.84;5081739;28;49930;-65
2021/12/12 11:23:20;;;;;;;;;31.50;27.75;;;;;13.63;69.86;102381.69;5077516;28;49624;-66
2021/12/12 11:25:56;;;;;;;;;13.75;12.25;;;;;13.67;69.79;102380.94;5071442;28;49786;-66
2021/12/12 11:28:35;;;;;;;;;8.50;8.50;;;;;13.52;69.08;102373.44;5083728;28;49544;-66
2021/12/12 11:31:12;;;;;;;;;10.25;10.25;;;;;13.46;70.45;102363.53;5087276;28;49454;-66
2021/12/12 11:33:40;;;;;;;;;15.50;15.50;;;;;13.66;69.97;102381.78;5085300;28;49344;-65
2021/12/12 11:36:12;;;;;;;;;9.75;8.50;;;;;13.03;69.94;102274.13;5074798;28;49829;-65
2021/12/12 11:39:00;;;;;;;;;9.50;7.75;;;;;13.75;70.21;102384.75;5071104;28;49737;-67
2021/12/12 11:41:48;;;;;;;;;5.50;5.00;;;;;13.78;70.28;102381.31;5070555;28;49857;-65
2021/12/12 11:44:31;;;;;;;;;11.75;10.50;;;;;13.81;70.12;102377.03;5071125;28;49889;-65
2021/12/12 11:47:06;;;;;;;;;11.25;10.25;;;;;13.72;70.08;102359.16;5070521;28;50602;-65
2021/12/12 11:49:50;;;;;;;;;8.25;8.25;;;;;13.81;69.65;102371.78;5070054;28;49812;-67
2021/12/12 11:52:30;;;;;;;;;11.50;10.25;;;;;13.92;70.09;102378.28;5070344;28;49765;-65
2021/12/12 11:55:05;;;;;;;;;10.25;10.25;;;;;13.92;69.69;102373.00;5073391;28;49687;-66
2021/12/12 11:57:47;;;;;;;;;10.75;10.25;;;;;13.97;70.21;102375.78;5070387;28;50368;-64
2021/12/12 12:00:25;;;;;;;;;10.00;10.00;;;;;14.00;69.93;102373.28;5070616;28;49987;-66
2021/12/12 12:03:33;;;;;;;;;10.00;9.00;;;;;13.97;69.57;102370.50;5070490;28;49761;-67
2021/12/12 12:06:19;;;;;;;;;10.00;8.00;;;;;13.98;69.71;102380.22;5071389;27;49969;-69
2021/12/12 12:09:15;;;;;;;;;7.00;7.00;;;;;13.99;69.90;102382.00;5070011;28;49843;-65
2021/12/12 12:11:55;;;;;;;;;12.25;12.25;;;;;13.84;69.55;102334.00;5080607;28;49706;-64
2021/12/12 12:14:29;;;;;;;;;10.50;10.00;;;;;14.06;69.47;102362.88;5079385;28;49867;-73
2021/12/12 12:17:33;;;;;;;;;7.25;7.25;;;;;14.24;69.37;102378.41;5071656;28;49505;-72
2021/12/12 12:20:15;;;;;;;;;7.00;7.00;;;;;14.26;69.15;102380.25;5035450;28;50254;-66
2021/12/12 12:22:58;;;;;;;;;11.25;10.75;;;;;14.26;69.27;102379.34;5070043;28;49670;-73
2021/12/12 12:28:35;;;;;;;;;9.25;9.25;;;;;14.36;69.15;102377.91;5070244;28;49784;-71
2021/12/12 12:31:08;;;;;;;;;8.75;8.75;;;;;14.38;69.32;102376.19;5070056;28;50505;-79
2021/12/12 12:34:15;;;;;;;;;12.00;8.25;;;;;14.41;69.50;102368.38;5069781;28;49871;-72
2021/12/12 12:37:18;;;;;;;;;8.00;8.00;;;;;14.42;68.90;102367.53;5034939;28;50044;-73
2021/12/12 12:40:09;;;;;;;;;10.25;10.25;;;;;14.39;69.11;102370.09;5073717;28;50111;-72
2021/12/12 12:43:12;;;;;;;;;7.50;6.25;;;;;14.39;68.67;102359.53;5073505;28;50883;-71
2021/12/12 12:46:08;;;;;;;;;9.25;7.25;;;;;14.41;68.74;102360.47;5073616;28;49908;-64
2021/12/12 12:49:21;;;;;;;;;10.00;8.75;;;;;14.39;68.59;102359.53;5073219;28;50063;-67
2021/12/12 12:52:24;;;;;;;;;8.75;7.00;;;;;14.46;68.68;102367.69;5051115;28;50159;-71
2021/12/12 12:55:26;;;;;;;;;7.50;6.75;;;;;14.49;68.69;102369.56;5071879;28;50930;-72
2021/12/12 12:58:10;;;;;;;;;5.00;5.00;;;;;14.45;68.39;102365.91;5073410;28;49896;-64
2021/12/12 13:00:37;;;;;;;;;5.25;4.25;;;;;14.38;68.33;102365.63;5073520;28;49826;-67
2021/12/12 13:03:18;;;;;;;;;6.00;5.00;;;;;14.39;68.03;102370.09;5073418;28;49855;-70
2021/12/12 13:06:01;;;;;;;;;6.00;6.00;;;;;14.25;68.32;102359.97;5072813;28;50918;-73
2021/12/12 13:08:48;;;;;;;;;7.25;7.00;;;;;14.39;68.92;102373.63;5071127;28;49805;-74
2021/12/12 13:11:18;;;;;;;;;5.25;5.25;;;;;14.41;68.06;102371.03;5073069;28;49859;-73
2021/12/12 13:13:58;;;;;;;;;5.75;4.25;;;;;14.44;68.77;102366.72;5073235;28;49731;-74
2021/12/12 13:16:51;;;;;;;;;7.00;7.00;;;;;14.45;68.13;102363.25;5072960;28;50856;-70
2021/12/12 13:19:35;;;;;;;;;6.25;6.25;;;;;14.40;68.16;102374.53;5073607;27;49913;-69
2021/12/12 13:22:29;;;;;;;;;6.00;5.00;;;;;14.31;67.50;102369.84;5092930;27;50199;-69
2021/12/12 13:25:01;;;;;;;;;6.50;6.00;;;;;14.24;68.06;102371.38;5100528;27;50035;-69
2021/12/12 13:30:44;;;;;;;;;5.50;5.00;;;;;13.23;68.86;102216.81;5105551;27;49928;-69
2021/12/12 13:33:27;;;;;;;;;7.00;7.00;;;;;12.51;68.68;102077.31;5092707;27;49843;-69
2021/12/12 13:36:20;;;;;;;;;8.75;7.00;;;;;14.22;68.30;102362.53;5092992;27;50013;-69
2021/12/12 13:38:45;;;;;;;;;6.00;5.00;;;;;14.22;68.86;102359.88;5092561;27;49809;-69
2021/12/12 13:41:39;;;;;;;;;7.75;7.25;;;;;14.26;69.03;102361.75;5092944;27;49760;-70
2021/12/12 13:44:12;;;;;;;;;6.25;6.25;;;;;14.23;68.39;102339.66;5093176;27;50037;-70
2021/12/12 13:47:28;;;;;;;;;5.00;5.00;;;;;14.36;68.43;102351.47;5093138;27;49752;-69
2021/12/12 13:50:17;;;;;;;;;6.25;6.25;;;;;14.36;68.49;102355.00;5008812;28;50475;-78
2021/12/12 13:52:52;;;;;;;;;9.25;8.50;;;;;14.32;68.70;102359.31;5088694;27;49812;-70
2021/12/12 13:55:27;;;;;;;;;6.00;6.00;;;;;14.17;68.52;102334.16;5074462;27;49628;-73
2021/12/12 13:57:52;;;;;;;;;5.25;5.25;;;;;14.28;68.15;102351.22;5093146;27;49763;-66
2021/12/12 14:00:26;;;;;;;;;8.00;8.00;;;;;14.17;68.65;102347.38;5092594;27;50826;-66
2021/12/12 14:03:13;;;;;;;;;7.75;5.75;;;;;14.23;68.78;102361.66;5092868;27;49707;-69
2021/12/12 14:05:43;;;;;;;;;8.75;6.75;;;;;14.28;68.80;102349.53;5092808;27;49716;-69
2021/12/12 14:08:11;;;;;;;;;8.50;6.75;;;;;14.31;68.50;102354.00;5092702;27;49610;-70
2021/12/12 14:10:38;;;;;;;;;8.00;6.25;;;;;14.28;68.34;102361.81;5092342;27;49748;-70
2021/12/12 14:13:18;;;;;;;;;10.25;7.25;;;;;14.31;68.50;102369.84;5092495;27;49606;-70
2021/12/12 14:15:58;;;;;;;;;9.25;7.75;;;;;14.14;69.08;102339.38;5092635;27;49791;-71
2021/12/12 14:18:26;;;;;;;;;7.00;7.00;;;;;14.21;68.75;102367.78;5092644;27;49918;-72
2021/12/12 14:20:56;;;;;;;;;6.00;6.00;;;;;14.16;69.23;102364.06;5092243;27;49829;-70
2021/12/12 14:23:31;;;;;;;;;8.25;8.25;;;;;14.09;68.86;102363.00;5073927;27;49988;-72
2021/12/12 14:26:11;;;;;;;;;5.25;5.25;;;;;14.03;69.34;102362.78;5092306;27;50036;-74
2021/12/12 14:28:39;;;;;;;;;9.00;8.00;;;;;14.04;69.72;102369.88;5092404;27;49931;-75
2021/12/12 14:31:09;;;;;;;;;6.00;6.00;;;;;14.03;69.12;102370.72;5092199;27;50534;-73
2021/12/12 14:33:42;;;;;;;;;11.75;7.00;;;;;13.71;69.23;102330.09;5073731;27;49784;-80
2021/12/12 14:36:16;;;;;;;;;6.25;6.25;;;;;13.65;69.58;102340.41;5092180;27;49694;-77
2021/12/12 14:38:42;;;;;;;;;5.50;5.50;;;;;13.71;70.09;102353.84;5092263;27;49850;-78
2021/12/12 14:41:08;;;;;;;;;8.75;6.75;;;;;13.67;70.29;102355.44;5092076;27;49825;-73
2021/12/12 14:43:43;;;;;;;;;6.75;5.00;;;;;13.72;70.28;102371.47;5092115;27;49728;-77
2021/12/12 14:46:21;;;;;;;;;9.50;6.25;;;;;13.69;70.76;102374.88;5073675;27;49913;-76
2021/12/12 14:48:54;;;;;;;;;9.75;9.75;;;;;13.69;70.58;102374.88;5073679;27;50017;-67
2021/12/12 14:51:24;;;;;;;;;8.00;7.25;;;;;13.66;70.45;102381.78;5091727;27;50552;-74
2021/12/12 14:53:54;;;;;;;;;9.50;7.00;;;;;13.64;70.76;102378.22;5091759;27;49913;-70
2021/12/12 14:56:28;;;;;;;;;10.25;8.75;;;;;13.51;70.51;102363.72;5096786;27;49805;-69
2021/12/12 14:58:59;;;;;;;;;9.50;8.00;;;;;13.45;70.56;102366.13;5068721;27;49877;-69
2021/12/12 15:01:48;;;;;;;;;6.25;6.25;;;;;13.52;70.55;102385.72;5070414;27;52677;-70
2021/12/12 15:04:36;;;;;;;;;7.00;6.00;;;;;13.29;71.15;102353.25;5083608;27;49806;-70
2021/12/12 15:07:09;;;;;;;;;6.25;6.25;;;;;13.40;71.47;102381.78;5063176;28;49991;-70
2021/12/12 15:09:52;;;;;;;;;11.50;10.00;;;;;12.72;71.32;102285.28;5052691;28;50192;-70
2021/12/12 15:12:22;;;;;;;;;10.50;9.00;;;;;13.12;70.81;102350.91;5052628;28;52328;-73
2021/12/12 15:14:52;;;;;;;;;6.00;6.00;;;;;12.78;71.71;102284.63;5052612;28;49790;-72
2021/12/12 15:17:20;;;;;;;;;8.25;8.25;;;;;13.17;72.14;102365.13;5052823;28;49943;-72
2021/12/12 15:19:50;;;;;;;;;8.00;8.00;;;;;13.03;72.03;102323.31;5052356;28;50000;-73
2021/12/12 15:22:20;;;;;;;;;10.00;10.00;;;;;13.09;71.78;102348.13;5052408;28;52073;-73
2021/12/12 15:24:54;;;;;;;;;10.00;7.25;;;;;12.65;71.82;102271.84;5070803;28;49604;-72
2021/12/12 15:27:43;;;;;;;;;10.75;10.75;;;;;12.50;71.52;102249.38;5052654;28;50009;-67
2021/12/12 15:30:13;;;;;;;;;11.50;10.75;;;;;12.30;71.99;102229.31;5070756;28;49969;-73
2021/12/12 15:32:43;;;;;;;;;13.00;9.00;;;;;12.76;72.00;102318.84;5070496;28;50921;-69
2021/12/12 15:35:16;;;;;;;;;10.00;9.00;;;;;13.04;72.24;102352.34;5070675;28;49765;-70
2021/12/12 15:37:44;;;;;;;;;12.50;11.50;;;;;11.84;71.77;102179.28;5070393;28;49854;-69
2021/12/12 15:40:37;;;;;;;;;14.00;12.00;;;;;13.24;71.97;102391.75;5070923;28;50012;-65
2021/12/12 15:43:07;;;;;;;;;9.75;9.75;;;;;12.37;72.17;102262.03;5068592;28;51062;-72
2021/12/12 15:45:46;;;;;;;;;20.00;15.00;;;;;13.22;72.21;102402.25;5070701;28;49845;-72
2021/12/12 15:48:17;;;;;;;;;11.00;11.00;;;;;13.17;72.57;102403.78;5070509;28;50008;-72
2021/12/12 15:50:43;;;;;;;;;17.75;14.75;;;;;13.16;72.39;102400.25;5070626;28;50074;-71
2021/12/12 15:53:19;;;;;;;;;12.00;12.00;;;;;13.14;72.56;102399.31;5070320;28;49790;-71
2021/12/12 15:55:50;;;;;;;;;11.75;9.75;;;;;13.12;72.53;102397.44;5070635;28;49634;-69
2021/12/12 15:58:29;;;;;;;;;11.00;11.00;;;;;12.50;72.46;102290.63;5070780;28;49737;-72
2021/12/12 16:01:11;;;;;;;;;17.50;15.00;;;;;13.10;72.54;102392.09;5070626;28;49779;-74
2021/12/12 16:03:49;;;;;;;;;18.50;16.25;;;;;13.06;73.05;102391.97;5070317;28;49847;-71
2021/12/12 16:06:44;;;;;;;;;14.25;13.50;;;;;13.03;72.71;102391.84;5070178;28;49776;-66
2021/12/12 16:09:21;;;;;;;;;14.75;14.75;;;;;12.99;72.88;102389.94;5061109;28;49778;-69
2021/12/12 16:11:56;;;;;;;;;15.00;12.75;;;;;13.02;73.10;102400.56;5073306;28;49800;-69
2021/12/12 16:14:25;;;;;;;;;20.00;19.00;;;;;13.00;72.88;102402.25;5073935;28;50542;-69
2021/12/12 16:16:52;;;;;;;;;20.50;17.00;;;;;12.99;73.24;102404.00;5073820;28;49708;-73
2021/12/12 16:19:25;;;;;;;;;21.25;20.00;;;;;12.97;73.35;102405.69;5073908;28;50146;-71
2021/12/12 16:21:54;;;;;;;;;18.75;15.50;;;;;12.96;73.04;102397.72;5073820;28;50035;-68
2021/12/12 16:24:34;;;;;;;;;15.50;14.25;;;;;12.88;73.08;102393.06;5073563;28;49684;-69
2021/12/12 16:27:05;;;;;;;;;20.75;19.75;;;;;12.91;73.26;102402.81;5055376;28;49982;-71
2021/12/12 16:29:32;;;;;;;;;18.50;17.50;;;;;12.89;73.35;102400.13;5073766;28;49858;-70
2021/12/12 16:32:00;;;;;;;;;18.00;18.00;;;;;12.88;73.50;102400.97;5073944;28;49934;-70
2021/12/12 16:34:33;;;;;;;;;19.00;18.00;;;;;12.89;73.34;102410.66;5073730;28;50391;-67
2021/12/12 16:37:06;;;;;;;;;18.00;16.75;;;;;12.83;73.29;102397.25;5073184;28;49571;-72
2021/12/12 16:39:49;;;;;;;;;21.75;19.25;;;;;12.88;73.29;102408.88;5073712;28;49621;-65
2021/12/12 16:42:19;;;;;;;;;22.00;20.25;;;;;12.86;73.67;102410.56;5072940;28;49906;-64
2021/12/12 16:44:53;;;;;;;;;24.00;21.00;;;;;12.88;73.39;102411.50;5073207;28;49720;-69
2021/12/12 16:47:23;;;;;;;;;20.50;19.25;;;;;12.82;73.44;102400.72;5073322;28;49836;-68
2021/12/12 16:49:50;;;;;;;;;23.25;20.00;;;;;12.71;73.61;102390.63;5038143;28;49798;-69
2021/12/12 16:52:19;;;;;;;;;27.50;23.75;;;;;12.76;73.49;102402.25;5032834;28;49929;-69
2021/12/12 16:54:48;;;;;;;;;20.25;20.25;;;;;12.83;73.88;102417.44;5032708;28;50703;-68
2021/12/12 16:57:33;;;;;;;;;23.50;23.50;;;;;12.81;73.74;102412.13;5032857;28;49886;-70
2021/12/12 17:00:37;;;;;;;;;23.00;22.00;;;;;12.80;73.58;102423.50;5030868;28;50005;-68
2021/12/12 17:03:18;;;;;;;;;23.00;20.50;;;;;12.75;73.89;102411.91;5031782;28;49622;-68
2021/12/12 17:05:47;;;;;;;;;25.75;24.75;;;;;12.13;73.53;102304.13;5032774;28;49830;-68
2021/12/12 17:08:29;;;;;;;;;25.75;25.50;;;;;12.66;73.82;102403.66;5032588;28;49608;-69
2021/12/12 17:11:01;;;;;;;;;21.25;21.00;;;;;12.78;74.07;102432.19;5032764;28;49828;-67
2021/12/12 17:13:32;;;;;;;;;20.50;18.50;;;;;12.75;73.86;102422.44;5031615;28;49797;-69
2021/12/12 17:15:58;;;;;;;;;18.25;17.00;;;;;12.72;74.35;102424.03;5032456;28;49705;-69
2021/12/12 17:18:29;;;;;;;;;17.75;16.00;;;;;12.76;73.90;102428.63;5032443;28;49713;-68
2021/12/12 17:20:59;;;;;;;;;16.25;16.25;;;;;12.27;74.12;102339.78;5032042;28;49970;-69
2021/12/12 17:23:30;;;;;;;;;18.50;15.50;;;;;12.70;74.36;102426.63;5032676;28;50146;-68
2021/12/12 17:25:58;;;;;;;;;20.00;18.50;;;;;12.65;74.27;102417.66;5032501;28;50597;-68
2021/12/12 17:28:26;;;;;;;;;16.75;16.00;;;;;12.23;74.12;102349.28;5032486;28;49738;-74
2021/12/12 17:31:11;;;;;;;;;19.25;17.25;;;;;12.73;74.47;102431.09;5032205;28;49602;-68
2021/12/12 17:33:42;;;;;;;;;23.50;21.50;;;;;12.59;74.25;102399.88;5032719;28;50073;-68
2021/12/12 17:36:14;;;;;;;;;19.00;17.75;;;;;12.76;74.19;102431.25;5031943;28;50348;-68
2021/12/12 17:38:48;;;;;;;;;21.00;20.25;;;;;12.74;74.31;102435.53;5032321;28;49752;-68
2021/12/12 17:41:25;;;;;;;;;30.00;25.00;;;;;12.70;74.43;102434.53;5033523;28;49657;-68
2021/12/12 17:43:55;;;;;;;;;21.00;21.00;;;;;12.73;74.11;102441.66;5033515;28;49877;-68
2021/12/12 17:46:59;;;;;;;;;24.75;23.50;;;;;12.70;74.38;102439.81;5032267;28;50331;-70
2021/12/12 17:50:02;;;;;;;;;22.25;22.25;;;;;12.73;74.37;102444.28;5052394;28;49690;-72
2021/12/12 17:52:39;;;;;;;;;24.75;24.00;;;;;12.71;74.28;102444.22;5072230;28;49794;-71
2021/12/12 17:55:18;;;;;;;;;31.00;24.25;;;;;12.65;74.16;102438.75;5072753;28;49927;-68
2021/12/12 17:57:57;;;;;;;;;29.25;26.75;;;;;12.62;74.60;102443.88;5072222;28;50576;-73
2021/12/12 18:00:45;;;;;;;;;33.00;26.75;;;;;12.52;74.75;102437.34;5072552;28;49539;-68
2021/12/12 18:03:14;;;;;;;;;20.25;19.75;;;;;12.64;74.65;102450.09;5072288;28;49525;-68
2021/12/12 18:05:46;;;;;;;;;21.75;21.25;;;;;12.64;74.81;102447.44;5072459;28;49826;-73
2021/12/12 18:08:22;;;;;;;;;21.50;17.50;;;;;12.63;74.35;102450.94;5091739;27;50145;-68
2021/12/12 18:10:54;;;;;;;;;22.75;20.25;;;;;12.60;74.65;102443.81;5094896;27;49859;-70
2021/12/12 18:13:25;;;;;;;;;25.25;24.75;;;;;12.61;74.49;102449.97;5122390;27;49997;-68
2021/12/12 18:16:02;;;;;;;;;23.50;23.50;;;;;12.61;74.63;102450.88;5129260;27;49510;-68
2021/12/12 18:19:01;;;;;;;;;23.75;21.00;;;;;12.62;74.67;102451.78;5102019;27;49797;-71
2021/12/12 18:21:29;;;;;;;;;24.50;20.25;;;;;12.57;74.56;102440.19;5090292;27;49524;-71
2021/12/12 18:23:56;;;;;;;;;21.25;20.00;;;;;12.62;74.42;102449.13;5112881;27;49779;-73
2021/12/12 18:26:24;;;;;;;;;20.75;19.25;;;;;12.62;74.40;102446.50;5096355;27;49944;-67
2021/12/12 18:28:54;;;;;;;;;22.25;19.25;;;;;12.64;74.42;102450.09;5091754;27;49622;-67
2021/12/12 18:31:28;;;;;;;;;22.00;18.25;;;;;12.56;74.38;102436.66;5091810;27;49961;-73
2021/12/12 18:34:03;;;;;;;;;23.50;21.00;;;;;12.61;74.19;102455.25;5090785;27;49896;-65
2021/12/12 18:36:51;;;;;;;;;18.00;17.50;;;;;12.61;74.44;102449.97;5091765;27;50586;-73
2021/12/12 18:39:22;;;;;;;;;21.25;19.25;;;;;12.29;74.73;102402.19;5073599;27;52503;-69
2021/12/12 18:42:01;;;;;;;;;18.75;18.25;;;;;12.26;74.28;102390.66;5071485;27;49938;-72
2021/12/12 18:44:31;;;;;;;;;24.75;18.25;;;;;12.60;74.44;102445.56;5068859;27;49908;-68
2021/12/12 18:47:01;;;;;;;;;18.50;15.00;;;;;12.55;74.76;102449.75;5074601;28;50173;-67
2021/12/12 18:49:38;;;;;;;;;20.00;19.00;;;;;12.46;74.84;102454.66;5075316;28;49636;-70
2021/12/12 18:52:20;;;;;;;;;16.00;14.25;;;;;12.28;75.00;102432.00;5070818;28;49683;-71
2021/12/12 18:55:05;;;;;;;;;19.50;17.00;;;;;12.43;74.88;102460.69;5081899;27;49862;-73
2021/12/12 18:57:39;;;;;;;;;16.50;16.50;;;;;12.42;75.10;102463.25;5073340;27;50264;-71
2021/12/12 19:00:11;;;;;;;;;24.50;23.00;;;;;12.43;75.02;102459.78;5091630;27;49893;-70
2021/12/12 19:02:44;;;;;;;;;20.00;19.00;;;;;12.41;75.34;102459.72;5091699;27;49603;-72
2021/12/12 19:05:24;;;;;;;;;27.25;20.75;;;;;12.42;75.05;102452.72;5072805;27;50009;-70
2021/12/12 19:08:10;;;;;;;;;20.25;20.00;;;;;12.43;74.97;102450.16;5091754;27;49921;-69
2021/12/12 19:10:45;;;;;;;;;21.75;20.25;;;;;12.36;74.87;102437.59;5091415;27;50333;-68
2021/12/12 19:13:11;;;;;;;;;22.50;21.75;;;;;12.39;75.01;102457.88;5073201;27;49650;-71
2021/12/12 19:15:37;;;;;;;;;26.75;26.75;;;;;12.38;75.14;102451.72;5091928;27;49862;-71
2021/12/12 19:18:28;;;;;;;;;23.00;21.50;;;;;12.42;74.82;102458.00;5091869;27;50002;-70
2021/12/12 19:21:02;;;;;;;;;20.25;20.25;;;;;12.39;74.62;102449.97;5090681;27;50148;-72
2021/12/12 19:23:32;;;;;;;;;18.75;17.75;;;;;12.44;74.55;102454.56;5089420;27;49697;-69
2021/12/12 19:25:58;;;;;;;;;18.25;16.25;;;;;12.41;74.33;102457.09;5089765;27;49966;-71
2021/12/12 19:28:27;;;;;;;;;23.00;21.00;;;;;12.04;74.41;102394.16;5089833;27;50096;-70
2021/12/12 19:30:57;;;;;;;;;26.25;23.00;;;;;12.39;73.95;102458.78;5089153;27;49966;-67
2021/12/12 19:33:24;;;;;;;;;17.75;17.25;;;;;12.22;74.01;102444.00;5089708;27;50063;-72
2021/12/12 19:35:51;;;;;;;;;18.75;16.75;;;;;12.41;74.32;102464.09;5088304;27;50010;-69
2021/12/12 19:38:22;;;;;;;;;25.25;23.00;;;;;12.42;74.07;102456.25;5091327;27;49776;-76
2021/12/12 19:40:55;;;;;;;;;22.00;21.00;;;;;11.96;73.78;102383.28;5091037;27;49880;-74
2021/12/12 19:43:25;;;;;;;;;18.00;18.00;;;;;12.23;74.01;102425.66;5091532;27;49863;-74
2021/12/12 19:46:02;;;;;;;;;26.25;19.50;;;;;12.42;73.86;102468.53;5093470;27;50103;-78
2021/12/12 19:48:39;;;;;;;;;22.25;20.00;;;;;12.19;73.53;102449.16;5109607;27;49677;-72
2021/12/12 19:51:08;;;;;;;;;15.50;13.50;;;;;12.39;72.97;102468.41;5091051;27;50800;-73
2021/12/12 19:53:53;;;;;;;;;11.75;11.75;;;;;12.33;73.02;102458.50;5098433;27;49639;-72
2021/12/12 19:56:21;;;;;;;;;12.75;11.00;;;;;12.37;72.39;102470.09;5091076;27;49684;-66
2021/12/12 19:58:51;;;;;;;;;7.75;7.75;;;;;12.36;71.68;102469.19;5091188;27;50205;-67
2021/12/12 20:01:21;;;;;;;;;11.25;10.25;;;;;12.37;71.82;102475.34;5090967;27;50946;-76